sensor_id;sensor_type;location;lat;lon;timestamp;P1;durP1;ratioP1;P2;durP2;ratioP2
49366;SDS011;35245;52.026;8.540;2022-12-07T00:00:54;39.15;;;26.05;;
49366;SDS011;35245;52.026;8.540;2022-12-07T00:03:21;40.13;;;27.00;;
49366;SDS011;35245;52.026;8.540;2022-12-07T00:05:48;38.28;;;26.77;;
49366;SDS011;35245;52.026;8.540;2022-12-07T00:08:17;50.13;;;30.58;;
49366;SDS011;35245;52.026;8.540;2022-12-07T00:10:44;45.95;;;29.48;;
49366;SDS011;35245;52.026;8.540;2022-12-07T00:13:11;50.05;;;31.52;;
49366;SDS011;35245;52.026;8.540;2022-12-07T00:15:38;55.15;;;33.72;;
49366;SDS011;35245;52.026;8.540;2022-12-07T00:18:05;53.72;;;33.60;;
49366;SDS011;35245;52.026;8.540;2022-12-07T00:20:32;52.17;;;31.20;;
49366;SDS011;35245;52.026;8.540;2022-12-07T00:23:00;54.47;;;33.42;;
49366;SDS011;35245;52.026;8.540;2022-12-07T00:25:28;48.83;;;32.30;;
49366;SDS011;35245;52.026;8.540;2022-12-07T00:27:56;47.92;;;28.40;;
49366;SDS011;35245;52.026;8.540;2022-12-07T00:30:24;45.50;;;30.17;;
49366;SDS011;35245;52.026;8.540;2022-12-07T00:32:51;45.45;;;29.95;;
49366;SDS011;35245;52.026;8.540;2022-12-07T00:35:18;45.55;;;30.17;;
49366;SDS011;35245;52.026;8.540;2022-12-07T00:37:45;39.88;;;26.88;;
49366;SDS011;35245;52.026;8.540;2022-12-07T00:40:12;37.05;;;25.65;;
49366;SDS011;35245;52.026;8.540;2022-12-07T00:42:41;37.28;;;25.23;;
49366;SDS011;35245;52.026;8.540;2022-12-07T00:45:08;38.58;;;25.10;;
49366;SDS011;35245;52.026;8.540;2022-12-07T00:47:36;40.45;;;26.83;;
49366;SDS011;35245;52.026;8.540;2022-12-07T00:50:03;38.72;;;25.38;;
49366;SDS011;35245;52.026;8.540;2022-12-07T00:52:32;35.85;;;25.38;;
49366;SDS011;35245;52.026;8.540;2022-12-07T00:54:59;38.03;;;25.25;;
49366;SDS011;35245;52.026;8.540;2022-12-07T00:57:26;36.75;;;23.70;;
49366;SDS011;35245;52.026;8.540;2022-12-07T00:59:55;37.50;;;23.73;;
49366;SDS011;35245;52.026;8.540;2022-12-07T01:02:22;36.30;;;24.10;;
49366;SDS011;35245;52.026;8.540;2022-12-07T01:04:50;36.13;;;24.30;;
49366;SDS011;35245;52.026;8.540;2022-12-07T01:07:17;35.97;;;23.75;;
49366;SDS011;35245;52.026;8.540;2022-12-07T01:09:44;39.28;;;25.70;;
49366;SDS011;35245;52.026;8.540;2022-12-07T01:12:11;38.25;;;26.05;;
49366;SDS011;35245;52.026;8.540;2022-12-07T01:14:38;37.88;;;23.05;;
49366;SDS011;35245;52.026;8.540;2022-12-07T01:17:08;37.17;;;24.63;;
49366;SDS011;35245;52.026;8.540;2022-12-07T01:19:36;34.30;;;23.10;;
49366;SDS011;35245;52.026;8.540;2022-12-07T01:22:03;34.92;;;22.52;;
49366;SDS011;35245;52.026;8.540;2022-12-07T01:24:30;30.02;;;22.38;;
49366;SDS011;35245;52.026;8.540;2022-12-07T01:26:57;34.42;;;22.88;;
49366;SDS011;35245;52.026;8.540;2022-12-07T01:29:24;31.33;;;21.60;;
49366;SDS011;35245;52.026;8.540;2022-12-07T01:31:51;28.60;;;19.30;;
49366;SDS011;35245;52.026;8.540;2022-12-07T01:34:20;33.40;;;21.13;;
49366;SDS011;35245;52.026;8.540;2022-12-07T01:36:47;32.40;;;21.35;;
49366;SDS011;35245;52.026;8.540;2022-12-07T01:39:14;29.95;;;20.60;;
49366;SDS011;35245;52.026;8.540;2022-12-07T01:41:41;31.25;;;20.30;;
49366;SDS011;35245;52.026;8.540;2022-12-07T01:44:16;29.40;;;21.50;;
49366;SDS011;35245;52.026;8.540;2022-12-07T01:46:47;31.05;;;20.88;;
49366;SDS011;35245;52.026;8.540;2022-12-07T01:49:23;31.30;;;21.42;;
49366;SDS011;35245;52.026;8.540;2022-12-07T01:51:57;28.27;;;19.73;;
49366;SDS011;35245;52.026;8.540;2022-12-07T01:54:35;23.52;;;16.90;;
49366;SDS011;35245;52.026;8.540;2022-12-07T01:57:03;27.08;;;17.83;;
49366;SDS011;35245;52.026;8.540;2022-12-07T01:59:33;26.92;;;17.52;;
49366;SDS011;35245;52.026;8.540;2022-12-07T02:02:01;22.73;;;15.00;;
49366;SDS011;35245;52.026;8.540;2022-12-07T02:04:34;21.65;;;15.32;;
49366;SDS011;35245;52.026;8.540;2022-12-07T02:07:02;21.05;;;14.45;;
49366;SDS011;35245;52.026;8.540;2022-12-07T02:09:31;19.95;;;13.75;;
49366;SDS011;35245;52.026;8.540;2022-12-07T02:11:58;21.15;;;14.52;;
49366;SDS011;35245;52.026;8.540;2022-12-07T02:14:25;21.17;;;14.50;;
49366;SDS011;35245;52.026;8.540;2022-12-07T02:16:56;26.67;;;15.57;;
49366;SDS011;35245;52.026;8.540;2022-12-07T02:19:50;23.67;;;15.13;;
49366;SDS011;35245;52.026;8.540;2022-12-07T02:26:03;25.98;;;15.40;;
49366;SDS011;35245;52.026;8.540;2022-12-07T02:29:09;25.38;;;15.40;;
49366;SDS011;35245;52.026;8.540;2022-12-07T02:31:43;23.80;;;14.82;;
49366;SDS011;35245;52.026;8.540;2022-12-07T02:34:19;23.35;;;14.77;;
49366;SDS011;35245;52.026;8.540;2022-12-07T02:36:54;21.10;;;14.85;;
49366;SDS011;35245;52.026;8.540;2022-12-07T02:39:28;23.20;;;13.80;;
49366;SDS011;35245;52.026;8.540;2022-12-07T02:42:06;23.42;;;13.70;;
49366;SDS011;35245;52.026;8.540;2022-12-07T02:44:42;24.17;;;13.77;;
49366;SDS011;35245;52.026;8.540;2022-12-07T02:47:10;21.23;;;13.63;;
49366;SDS011;35245;52.026;8.540;2022-12-07T02:49:42;21.95;;;14.10;;
49366;SDS011;35245;52.026;8.540;2022-12-07T02:52:09;19.50;;;12.43;;
49366;SDS011;35245;52.026;8.540;2022-12-07T02:54:36;26.75;;;12.70;;
49366;SDS011;35245;52.026;8.540;2022-12-07T02:57:06;23.70;;;12.98;;
49366;SDS011;35245;52.026;8.540;2022-12-07T02:59:58;16.58;;;10.77;;
49366;SDS011;35245;52.026;8.540;2022-12-07T03:02:33;20.48;;;11.80;;
49366;SDS011;35245;52.026;8.540;2022-12-07T03:05:15;20.10;;;11.48;;
49366;SDS011;35245;52.026;8.540;2022-12-07T03:08:21;20.33;;;11.15;;
49366;SDS011;35245;52.026;8.540;2022-12-07T03:10:57;23.85;;;11.40;;
49366;SDS011;35245;52.026;8.540;2022-12-07T03:16:02;20.77;;;9.85;;
49366;SDS011;35245;52.026;8.540;2022-12-07T03:18:39;17.60;;;10.07;;
49366;SDS011;35245;52.026;8.540;2022-12-07T03:21:14;21.48;;;10.23;;
49366;SDS011;35245;52.026;8.540;2022-12-07T03:23:48;19.25;;;9.98;;
49366;SDS011;35245;52.026;8.540;2022-12-07T03:26:20;17.33;;;9.70;;
49366;SDS011;35245;52.026;8.540;2022-12-07T03:28:54;23.50;;;9.45;;
49366;SDS011;35245;52.026;8.540;2022-12-07T03:31:28;21.38;;;9.98;;
49366;SDS011;35245;52.026;8.540;2022-12-07T03:33:58;19.27;;;11.02;;
49366;SDS011;35245;52.026;8.540;2022-12-07T03:36:35;18.70;;;9.85;;
49366;SDS011;35245;52.026;8.540;2022-12-07T03:39:13;16.90;;;9.40;;
49366;SDS011;35245;52.026;8.540;2022-12-07T03:41:47;23.70;;;9.85;;
49366;SDS011;35245;52.026;8.540;2022-12-07T03:44:15;17.60;;;9.48;;
49366;SDS011;35245;52.026;8.540;2022-12-07T03:46:47;16.52;;;10.10;;
49366;SDS011;35245;52.026;8.540;2022-12-07T03:49:25;17.15;;;10.32;;
49366;SDS011;35245;52.026;8.540;2022-12-07T03:51:59;24.95;;;11.25;;
49366;SDS011;35245;52.026;8.540;2022-12-07T03:54:36;17.30;;;9.55;;
49366;SDS011;35245;52.026;8.540;2022-12-07T03:57:09;21.63;;;10.15;;
49366;SDS011;35245;52.026;8.540;2022-12-07T03:59:38;17.13;;;9.68;;
49366;SDS011;35245;52.026;8.540;2022-12-07T04:02:08;20.50;;;9.80;;
49366;SDS011;35245;52.026;8.540;2022-12-07T04:04:39;16.60;;;9.52;;
49366;SDS011;35245;52.026;8.540;2022-12-07T04:07:08;17.77;;;9.57;;
49366;SDS011;35245;52.026;8.540;2022-12-07T04:09:35;17.50;;;9.80;;
49366;SDS011;35245;52.026;8.540;2022-12-07T04:12:03;20.00;;;9.10;;
49366;SDS011;35245;52.026;8.540;2022-12-07T04:14:30;19.88;;;9.82;;
49366;SDS011;35245;52.026;8.540;2022-12-07T04:16:58;16.48;;;9.35;;
49366;SDS011;35245;52.026;8.540;2022-12-07T04:19:27;19.80;;;10.45;;
49366;SDS011;35245;52.026;8.540;2022-12-07T04:21:57;17.25;;;9.55;;
49366;SDS011;35245;52.026;8.540;2022-12-07T04:24:26;16.00;;;9.23;;
49366;SDS011;35245;52.026;8.540;2022-12-07T04:26:54;12.85;;;7.95;;
49366;SDS011;35245;52.026;8.540;2022-12-07T04:29:22;17.42;;;8.73;;
49366;SDS011;35245;52.026;8.540;2022-12-07T04:31:49;17.70;;;8.32;;
49366;SDS011;35245;52.026;8.540;2022-12-07T04:34:17;17.35;;;8.90;;
49366;SDS011;35245;52.026;8.540;2022-12-07T04:36:47;19.80;;;9.10;;
49366;SDS011;35245;52.026;8.540;2022-12-07T04:39:17;18.33;;;9.32;;
49366;SDS011;35245;52.026;8.540;2022-12-07T04:41:47;14.95;;;8.15;;
49366;SDS011;35245;52.026;8.540;2022-12-07T04:44:15;16.13;;;7.90;;
49366;SDS011;35245;52.026;8.540;2022-12-07T04:46:43;18.27;;;8.80;;
49366;SDS011;35245;52.026;8.540;2022-12-07T04:49:11;14.35;;;8.65;;
49366;SDS011;35245;52.026;8.540;2022-12-07T04:51:40;15.38;;;7.70;;
49366;SDS011;35245;52.026;8.540;2022-12-07T04:54:09;16.35;;;8.20;;
49366;SDS011;35245;52.026;8.540;2022-12-07T04:56:38;16.42;;;7.95;;
49366;SDS011;35245;52.026;8.540;2022-12-07T04:59:05;18.75;;;8.35;;
49366;SDS011;35245;52.026;8.540;2022-12-07T05:01:33;16.80;;;8.15;;
49366;SDS011;35245;52.026;8.540;2022-12-07T05:04:01;14.45;;;7.45;;
49366;SDS011;35245;52.026;8.540;2022-12-07T05:06:28;16.33;;;7.75;;
49366;SDS011;35245;52.026;8.540;2022-12-07T05:08:55;19.92;;;7.65;;
49366;SDS011;35245;52.026;8.540;2022-12-07T05:11:24;14.07;;;7.78;;
49366;SDS011;35245;52.026;8.540;2022-12-07T05:14:08;13.13;;;7.55;;
49366;SDS011;35245;52.026;8.540;2022-12-07T05:19:06;15.13;;;8.77;;
49366;SDS011;35245;52.026;8.540;2022-12-07T05:21:35;14.73;;;8.07;;
49366;SDS011;35245;52.026;8.540;2022-12-07T05:24:02;17.05;;;8.70;;
49366;SDS011;35245;52.026;8.540;2022-12-07T05:26:32;17.90;;;8.77;;
49366;SDS011;35245;52.026;8.540;2022-12-07T05:29:00;14.80;;;7.80;;
49366;SDS011;35245;52.026;8.540;2022-12-07T05:31:27;17.13;;;8.43;;
49366;SDS011;35245;52.026;8.540;2022-12-07T05:33:55;12.65;;;7.43;;
49366;SDS011;35245;52.026;8.540;2022-12-07T05:36:22;12.23;;;6.78;;
49366;SDS011;35245;52.026;8.540;2022-12-07T05:38:49;14.70;;;6.68;;
49366;SDS011;35245;52.026;8.540;2022-12-07T05:41:18;11.55;;;6.60;;
49366;SDS011;35245;52.026;8.540;2022-12-07T05:44:05;15.40;;;6.60;;
49366;SDS011;35245;52.026;8.540;2022-12-07T05:46:32;12.43;;;6.57;;
49366;SDS011;35245;52.026;8.540;2022-12-07T05:49:00;19.48;;;7.18;;
49366;SDS011;35245;52.026;8.540;2022-12-07T05:51:27;16.90;;;7.05;;
49366;SDS011;35245;52.026;8.540;2022-12-07T05:53:55;15.15;;;6.70;;
49366;SDS011;35245;52.026;8.540;2022-12-07T05:56:22;16.08;;;6.85;;
49366;SDS011;35245;52.026;8.540;2022-12-07T05:58:49;17.50;;;7.07;;
49366;SDS011;35245;52.026;8.540;2022-12-07T06:01:35;18.13;;;6.32;;
49366;SDS011;35245;52.026;8.540;2022-12-07T06:04:03;13.65;;;7.05;;
49366;SDS011;35245;52.026;8.540;2022-12-07T06:06:30;11.32;;;5.95;;
49366;SDS011;35245;52.026;8.540;2022-12-07T06:08:57;21.17;;;7.50;;
49366;SDS011;35245;52.026;8.540;2022-12-07T06:11:24;14.18;;;6.97;;
49366;SDS011;35245;52.026;8.540;2022-12-07T06:14:09;14.82;;;7.60;;
49366;SDS011;35245;52.026;8.540;2022-12-07T06:16:38;11.68;;;6.88;;
49366;SDS011;35245;52.026;8.540;2022-12-07T06:19:05;17.55;;;7.28;;
49366;SDS011;35245;52.026;8.540;2022-12-07T06:21:32;15.50;;;7.70;;
49366;SDS011;35245;52.026;8.540;2022-12-07T06:23:59;20.00;;;7.78;;
49366;SDS011;35245;52.026;8.540;2022-12-07T06:26:26;18.75;;;8.25;;
49366;SDS011;35245;52.026;8.540;2022-12-07T06:28:54;15.80;;;8.27;;
49366;SDS011;35245;52.026;8.540;2022-12-07T06:31:21;16.35;;;7.63;;
49366;SDS011;35245;52.026;8.540;2022-12-07T06:33:50;17.05;;;7.57;;
49366;SDS011;35245;52.026;8.540;2022-12-07T06:36:22;17.17;;;7.60;;
49366;SDS011;35245;52.026;8.540;2022-12-07T06:38:50;14.60;;;7.20;;
49366;SDS011;35245;52.026;8.540;2022-12-07T06:41:17;21.55;;;7.80;;
49366;SDS011;35245;52.026;8.540;2022-12-07T06:43:44;15.75;;;7.35;;
49366;SDS011;35245;52.026;8.540;2022-12-07T06:46:12;18.23;;;8.70;;
49366;SDS011;35245;52.026;8.540;2022-12-07T06:48:39;14.52;;;7.65;;
49366;SDS011;35245;52.026;8.540;2022-12-07T06:51:08;14.50;;;7.32;;
49366;SDS011;35245;52.026;8.540;2022-12-07T06:53:36;18.60;;;8.07;;
49366;SDS011;35245;52.026;8.540;2022-12-07T06:56:04;16.65;;;8.13;;
49366;SDS011;35245;52.026;8.540;2022-12-07T06:58:32;18.98;;;7.65;;
49366;SDS011;35245;52.026;8.540;2022-12-07T07:00:59;15.10;;;7.32;;
49366;SDS011;35245;52.026;8.540;2022-12-07T07:03:26;17.35;;;7.50;;
49366;SDS011;35245;52.026;8.540;2022-12-07T07:05:53;12.13;;;6.70;;
49366;SDS011;35245;52.026;8.540;2022-12-07T07:08:22;12.23;;;6.18;;
49366;SDS011;35245;52.026;8.540;2022-12-07T07:10:49;17.95;;;7.25;;
49366;SDS011;35245;52.026;8.540;2022-12-07T07:13:16;14.48;;;6.53;;
49366;SDS011;35245;52.026;8.540;2022-12-07T07:15:44;18.33;;;7.38;;
49366;SDS011;35245;52.026;8.540;2022-12-07T07:18:11;13.75;;;6.82;;
49366;SDS011;35245;52.026;8.540;2022-12-07T07:20:38;15.00;;;6.72;;
49366;SDS011;35245;52.026;8.540;2022-12-07T07:23:06;12.73;;;6.15;;
49366;SDS011;35245;52.026;8.540;2022-12-07T07:25:35;16.58;;;6.28;;
49366;SDS011;35245;52.026;8.540;2022-12-07T07:28:02;13.25;;;6.10;;
49366;SDS011;35245;52.026;8.540;2022-12-07T07:30:30;16.42;;;6.97;;
49366;SDS011;35245;52.026;8.540;2022-12-07T07:32:58;12.63;;;5.68;;
49366;SDS011;35245;52.026;8.540;2022-12-07T07:35:26;15.23;;;7.03;;
49366;SDS011;35245;52.026;8.540;2022-12-07T07:37:55;15.60;;;6.72;;
49366;SDS011;35245;52.026;8.540;2022-12-07T07:40:23;16.10;;;6.50;;
49366;SDS011;35245;52.026;8.540;2022-12-07T07:42:53;14.85;;;7.05;;
49366;SDS011;35245;52.026;8.540;2022-12-07T07:45:21;20.30;;;6.53;;
49366;SDS011;35245;52.026;8.540;2022-12-07T07:47:50;18.60;;;5.50;;
49366;SDS011;35245;52.026;8.540;2022-12-07T07:50:18;15.73;;;5.72;;
49366;SDS011;35245;52.026;8.540;2022-12-07T07:52:46;18.42;;;5.80;;
49366;SDS011;35245;52.026;8.540;2022-12-07T07:55:13;19.35;;;5.90;;
49366;SDS011;35245;52.026;8.540;2022-12-07T07:57:41;12.93;;;5.50;;
49366;SDS011;35245;52.026;8.540;2022-12-07T08:00:11;17.55;;;5.32;;
49366;SDS011;35245;52.026;8.540;2022-12-07T08:02:40;17.20;;;5.05;;
49366;SDS011;35245;52.026;8.540;2022-12-07T08:05:09;9.18;;;4.50;;
49366;SDS011;35245;52.026;8.540;2022-12-07T08:07:37;12.40;;;5.45;;
49366;SDS011;35245;52.026;8.540;2022-12-07T08:10:05;10.27;;;4.85;;
49366;SDS011;35245;52.026;8.540;2022-12-07T08:12:36;11.25;;;4.65;;
49366;SDS011;35245;52.026;8.540;2022-12-07T08:15:27;12.52;;;4.85;;
49366;SDS011;35245;52.026;8.540;2022-12-07T08:17:56;17.80;;;4.93;;
49366;SDS011;35245;52.026;8.540;2022-12-07T08:20:24;16.77;;;4.50;;
49366;SDS011;35245;52.026;8.540;2022-12-07T08:22:51;15.40;;;4.78;;
49366;SDS011;35245;52.026;8.540;2022-12-07T08:25:19;10.55;;;4.70;;
49366;SDS011;35245;52.026;8.540;2022-12-07T08:27:47;15.93;;;3.92;;
49366;SDS011;35245;52.026;8.540;2022-12-07T08:30:14;12.32;;;3.90;;
49366;SDS011;35245;52.026;8.540;2022-12-07T08:32:45;11.95;;;3.95;;
49366;SDS011;35245;52.026;8.540;2022-12-07T08:35:13;13.23;;;4.20;;
49366;SDS011;35245;52.026;8.540;2022-12-07T08:37:40;14.15;;;4.20;;
49366;SDS011;35245;52.026;8.540;2022-12-07T08:40:09;24.65;;;5.32;;
49366;SDS011;35245;52.026;8.540;2022-12-07T08:42:40;15.60;;;4.20;;
49366;SDS011;35245;52.026;8.540;2022-12-07T08:45:10;15.27;;;4.95;;
49366;SDS011;35245;52.026;8.540;2022-12-07T08:47:45;11.98;;;5.00;;
49366;SDS011;35245;52.026;8.540;2022-12-07T08:50:17;11.38;;;3.80;;
49366;SDS011;35245;52.026;8.540;2022-12-07T08:52:44;17.73;;;4.32;;
49366;SDS011;35245;52.026;8.540;2022-12-07T08:55:17;15.27;;;4.40;;
49366;SDS011;35245;52.026;8.540;2022-12-07T08:57:46;18.23;;;5.13;;
49366;SDS011;35245;52.026;8.540;2022-12-07T09:00:14;11.85;;;4.18;;
49366;SDS011;35245;52.026;8.540;2022-12-07T09:02:43;8.25;;;3.00;;
49366;SDS011;35245;52.026;8.540;2022-12-07T09:05:12;11.85;;;3.33;;
49366;SDS011;35245;52.026;8.540;2022-12-07T09:07:40;10.07;;;3.40;;
49366;SDS011;35245;52.026;8.540;2022-12-07T09:10:12;13.00;;;3.83;;
49366;SDS011;35245;52.026;8.540;2022-12-07T09:12:39;10.43;;;3.42;;
49366;SDS011;35245;52.026;8.540;2022-12-07T09:15:07;13.93;;;3.20;;
49366;SDS011;35245;52.026;8.540;2022-12-07T09:17:35;9.57;;;3.33;;
49366;SDS011;35245;52.026;8.540;2022-12-07T09:20:04;11.55;;;3.38;;
49366;SDS011;35245;52.026;8.540;2022-12-07T09:22:33;7.65;;;3.08;;
49366;SDS011;35245;52.026;8.540;2022-12-07T09:25:01;15.25;;;3.17;;
49366;SDS011;35245;52.026;8.540;2022-12-07T09:27:29;8.27;;;2.50;;
49366;SDS011;35245;52.026;8.540;2022-12-07T09:29:57;16.25;;;3.40;;
49366;SDS011;35245;52.026;8.540;2022-12-07T09:32:24;11.23;;;3.53;;
49366;SDS011;35245;52.026;8.540;2022-12-07T09:34:51;18.05;;;3.50;;
49366;SDS011;35245;52.026;8.540;2022-12-07T09:37:20;11.13;;;3.25;;
49366;SDS011;35245;52.026;8.540;2022-12-07T09:39:47;14.10;;;3.38;;
49366;SDS011;35245;52.026;8.540;2022-12-07T09:42:18;16.65;;;3.88;;
49366;SDS011;35245;52.026;8.540;2022-12-07T09:44:55;10.45;;;3.33;;
49366;SDS011;35245;52.026;8.540;2022-12-07T09:47:23;16.05;;;4.40;;
49366;SDS011;35245;52.026;8.540;2022-12-07T09:49:51;11.55;;;3.88;;
49366;SDS011;35245;52.026;8.540;2022-12-07T09:52:24;10.73;;;3.60;;
49366;SDS011;35245;52.026;8.540;2022-12-07T09:54:54;12.93;;;3.05;;
49366;SDS011;35245;52.026;8.540;2022-12-07T09:57:24;7.78;;;2.45;;
49366;SDS011;35245;52.026;8.540;2022-12-07T09:59:56;8.23;;;2.80;;
49366;SDS011;35245;52.026;8.540;2022-12-07T10:02:31;16.43;;;3.87;;
49366;SDS011;35245;52.026;8.540;2022-12-07T10:05:04;16.73;;;3.38;;
49366;SDS011;35245;52.026;8.540;2022-12-07T10:07:38;11.73;;;3.60;;
49366;SDS011;35245;52.026;8.540;2022-12-07T10:10:09;13.98;;;3.72;;
49366;SDS011;35245;52.026;8.540;2022-12-07T10:12:57;8.80;;;3.13;;
49366;SDS011;35245;52.026;8.540;2022-12-07T10:15:41;10.52;;;3.38;;
49366;SDS011;35245;52.026;8.540;2022-12-07T10:18:25;10.40;;;3.10;;
49366;SDS011;35245;52.026;8.540;2022-12-07T10:21:02;17.85;;;4.38;;
49366;SDS011;35245;52.026;8.540;2022-12-07T10:23:38;11.82;;;3.42;;
49366;SDS011;35245;52.026;8.540;2022-12-07T10:26:21;12.23;;;3.30;;
49366;SDS011;35245;52.026;8.540;2022-12-07T10:28:56;9.88;;;2.97;;
49366;SDS011;35245;52.026;8.540;2022-12-07T10:31:28;10.55;;;2.72;;
49366;SDS011;35245;52.026;8.540;2022-12-07T10:33:57;15.70;;;3.00;;
49366;SDS011;35245;52.026;8.540;2022-12-07T10:36:27;10.63;;;3.72;;
49366;SDS011;35245;52.026;8.540;2022-12-07T10:39:09;19.50;;;4.00;;
49366;SDS011;35245;52.026;8.540;2022-12-07T10:41:52;12.63;;;3.50;;
49366;SDS011;35245;52.026;8.540;2022-12-07T10:53:25;8.20;;;2.67;;
49366;SDS011;35245;52.026;8.540;2022-12-07T10:56:14;9.57;;;3.22;;
49366;SDS011;35245;52.026;8.540;2022-12-07T10:59:06;15.77;;;4.13;;
49366;SDS011;35245;52.026;8.540;2022-12-07T11:01:50;10.35;;;3.63;;
49366;SDS011;35245;52.026;8.540;2022-12-07T11:04:29;18.10;;;3.17;;
49366;SDS011;35245;52.026;8.540;2022-12-07T11:07:06;17.10;;;3.88;;
49366;SDS011;35245;52.026;8.540;2022-12-07T11:09:45;16.65;;;3.75;;
49366;SDS011;35245;52.026;8.540;2022-12-07T11:12:32;13.02;;;3.00;;
49366;SDS011;35245;52.026;8.540;2022-12-07T11:15:16;14.52;;;3.25;;
49366;SDS011;35245;52.026;8.540;2022-12-07T11:17:52;11.52;;;2.55;;
49366;SDS011;35245;52.026;8.540;2022-12-07T11:20:29;13.40;;;3.35;;
49366;SDS011;35245;52.026;8.540;2022-12-07T11:23:13;17.75;;;3.63;;
49366;SDS011;35245;52.026;8.540;2022-12-07T11:25:54;10.13;;;3.47;;
49366;SDS011;35245;52.026;8.540;2022-12-07T11:28:38;13.38;;;3.83;;
49366;SDS011;35245;52.026;8.540;2022-12-07T11:31:24;7.88;;;2.42;;
49366;SDS011;35245;52.026;8.540;2022-12-07T11:34:00;10.73;;;2.72;;
49366;SDS011;35245;52.026;8.540;2022-12-07T11:36:41;10.77;;;2.50;;
49366;SDS011;35245;52.026;8.540;2022-12-07T11:39:16;11.80;;;2.70;;
49366;SDS011;35245;52.026;8.540;2022-12-07T11:41:55;7.88;;;2.72;;
49366;SDS011;35245;52.026;8.540;2022-12-07T11:44:33;10.55;;;2.92;;
49366;SDS011;35245;52.026;8.540;2022-12-07T11:47:06;13.27;;;2.78;;
49366;SDS011;35245;52.026;8.540;2022-12-07T11:49:41;11.95;;;3.70;;
49366;SDS011;35245;52.026;8.540;2022-12-07T11:52:16;15.20;;;4.15;;
49366;SDS011;35245;52.026;8.540;2022-12-07T11:54:52;12.98;;;3.60;;
49366;SDS011;35245;52.026;8.540;2022-12-07T11:57:23;18.83;;;3.70;;
49366;SDS011;35245;52.026;8.540;2022-12-07T12:00:04;15.90;;;2.58;;
49366;SDS011;35245;52.026;8.540;2022-12-07T12:02:41;13.88;;;3.80;;
49366;SDS011;35245;52.026;8.540;2022-12-07T12:05:16;11.70;;;3.08;;
49366;SDS011;35245;52.026;8.540;2022-12-07T12:07:48;9.27;;;3.35;;
49366;SDS011;35245;52.026;8.540;2022-12-07T12:10:25;15.80;;;2.83;;
49366;SDS011;35245;52.026;8.540;2022-12-07T12:13:19;12.00;;;3.45;;
49366;SDS011;35245;52.026;8.540;2022-12-07T12:19:26;6.13;;;2.45;;
49366;SDS011;35245;52.026;8.540;2022-12-07T12:22:03;10.93;;;2.72;;
49366;SDS011;35245;52.026;8.540;2022-12-07T12:24:40;6.60;;;1.63;;
49366;SDS011;35245;52.026;8.540;2022-12-07T12:27:15;18.05;;;3.20;;
49366;SDS011;35245;52.026;8.540;2022-12-07T12:29:51;11.88;;;2.80;;
49366;SDS011;35245;52.026;8.540;2022-12-07T12:32:23;7.32;;;3.08;;
49366;SDS011;35245;52.026;8.540;2022-12-07T12:47:57;6.13;;;1.88;;
49366;SDS011;35245;52.026;8.540;2022-12-07T12:50:27;9.77;;;2.38;;
49366;SDS011;35245;52.026;8.540;2022-12-07T12:53:02;10.93;;;2.95;;
49366;SDS011;35245;52.026;8.540;2022-12-07T13:01:51;8.93;;;2.13;;
49366;SDS011;35245;52.026;8.540;2022-12-07T13:10:24;8.20;;;2.58;;
49366;SDS011;35245;52.026;8.540;2022-12-07T13:25:19;12.68;;;2.70;;
49366;SDS011;35245;52.026;8.540;2022-12-07T13:27:58;9.73;;;2.40;;
49366;SDS011;35245;52.026;8.540;2022-12-07T13:30:39;10.55;;;2.05;;
49366;SDS011;35245;52.026;8.540;2022-12-07T13:33:13;12.27;;;2.10;;
49366;SDS011;35245;52.026;8.540;2022-12-07T13:35:45;10.07;;;2.70;;
49366;SDS011;35245;52.026;8.540;2022-12-07T13:38:18;14.95;;;3.95;;
49366;SDS011;35245;52.026;8.540;2022-12-07T13:41:04;13.45;;;3.38;;
49366;SDS011;35245;52.026;8.540;2022-12-07T13:43:44;9.05;;;2.60;;
49366;SDS011;35245;52.026;8.540;2022-12-07T13:46:15;11.57;;;2.85;;
49366;SDS011;35245;52.026;8.540;2022-12-07T13:48:50;8.50;;;2.80;;
49366;SDS011;35245;52.026;8.540;2022-12-07T13:51:22;10.50;;;4.03;;
49366;SDS011;35245;52.026;8.540;2022-12-07T13:54:08;11.05;;;3.10;;
49366;SDS011;35245;52.026;8.540;2022-12-07T13:56:39;11.45;;;3.47;;
49366;SDS011;35245;52.026;8.540;2022-12-07T13:59:12;15.52;;;3.47;;
49366;SDS011;35245;52.026;8.540;2022-12-07T14:01:43;17.10;;;4.32;;
49366;SDS011;35245;52.026;8.540;2022-12-07T14:04:18;16.98;;;3.88;;
49366;SDS011;35245;52.026;8.540;2022-12-07T14:07:00;23.20;;;5.10;;
49366;SDS011;35245;52.026;8.540;2022-12-07T14:09:54;11.43;;;2.80;;
49366;SDS011;35245;52.026;8.540;2022-12-07T14:12:24;20.38;;;2.75;;
49366;SDS011;35245;52.026;8.540;2022-12-07T14:14:55;13.02;;;2.72;;
49366;SDS011;35245;52.026;8.540;2022-12-07T14:17:25;8.40;;;1.98;;
49366;SDS011;35245;52.026;8.540;2022-12-07T14:19:54;11.90;;;2.90;;
49366;SDS011;35245;52.026;8.540;2022-12-07T14:22:30;8.85;;;2.88;;
49366;SDS011;35245;52.026;8.540;2022-12-07T14:25:14;14.93;;;3.20;;
49366;SDS011;35245;52.026;8.540;2022-12-07T14:27:49;9.48;;;2.03;;
49366;SDS011;35245;52.026;8.540;2022-12-07T14:30:24;9.88;;;2.33;;
49366;SDS011;35245;52.026;8.540;2022-12-07T14:35:27;11.50;;;2.40;;
49366;SDS011;35245;52.026;8.540;2022-12-07T14:37:58;7.43;;;2.47;;
49366;SDS011;35245;52.026;8.540;2022-12-07T14:40:26;12.45;;;3.08;;
49366;SDS011;35245;52.026;8.540;2022-12-07T14:42:57;10.10;;;2.85;;
49366;SDS011;35245;52.026;8.540;2022-12-07T14:45:29;12.18;;;2.83;;
49366;SDS011;35245;52.026;8.540;2022-12-07T14:47:57;7.97;;;2.33;;
49366;SDS011;35245;52.026;8.540;2022-12-07T14:50:25;10.80;;;2.45;;
49366;SDS011;35245;52.026;8.540;2022-12-07T14:52:54;18.63;;;2.50;;
49366;SDS011;35245;52.026;8.540;2022-12-07T14:55:27;12.48;;;2.80;;
49366;SDS011;35245;52.026;8.540;2022-12-07T14:57:56;8.88;;;2.08;;
49366;SDS011;35245;52.026;8.540;2022-12-07T15:00:25;23.90;;;4.13;;
49366;SDS011;35245;52.026;8.540;2022-12-07T15:02:55;15.52;;;3.88;;
49366;SDS011;35245;52.026;8.540;2022-12-07T15:05:23;19.02;;;3.92;;
49366;SDS011;35245;52.026;8.540;2022-12-07T15:07:51;13.38;;;3.03;;
49366;SDS011;35245;52.026;8.540;2022-12-07T15:10:21;24.58;;;3.90;;
49366;SDS011;35245;52.026;8.540;2022-12-07T15:12:54;13.98;;;3.17;;
49366;SDS011;35245;52.026;8.540;2022-12-07T15:15:43;11.90;;;3.22;;
49366;SDS011;35245;52.026;8.540;2022-12-07T15:18:12;14.82;;;3.95;;
49366;SDS011;35245;52.026;8.540;2022-12-07T15:20:41;8.57;;;2.97;;
49366;SDS011;35245;52.026;8.540;2022-12-07T15:23:09;9.07;;;2.70;;
49366;SDS011;35245;52.026;8.540;2022-12-07T15:25:41;14.63;;;4.30;;
49366;SDS011;35245;52.026;8.540;2022-12-07T15:28:10;13.23;;;4.15;;
49366;SDS011;35245;52.026;8.540;2022-12-07T15:30:38;20.10;;;3.95;;
49366;SDS011;35245;52.026;8.540;2022-12-07T15:33:08;18.38;;;5.03;;
49366;SDS011;35245;52.026;8.540;2022-12-07T15:35:38;19.10;;;5.18;;
49366;SDS011;35245;52.026;8.540;2022-12-07T15:38:06;13.93;;;3.92;;
49366;SDS011;35245;52.026;8.540;2022-12-07T15:40:34;15.40;;;3.72;;
49366;SDS011;35245;52.026;8.540;2022-12-07T15:43:04;19.20;;;5.15;;
49366;SDS011;35245;52.026;8.540;2022-12-07T15:45:55;17.67;;;4.68;;
49366;SDS011;35245;52.026;8.540;2022-12-07T15:48:22;16.10;;;3.90;;
49366;SDS011;35245;52.026;8.540;2022-12-07T15:50:51;16.30;;;4.07;;
49366;SDS011;35245;52.026;8.540;2022-12-07T15:53:19;13.85;;;3.55;;
49366;SDS011;35245;52.026;8.540;2022-12-07T15:55:46;15.35;;;4.10;;
49366;SDS011;35245;52.026;8.540;2022-12-07T15:58:16;19.42;;;5.00;;
49366;SDS011;35245;52.026;8.540;2022-12-07T16:00:45;18.80;;;4.63;;